createdAt,value
2018-12-11T00:00:18.688Z,0.9
2018-12-11T00:02:19.448Z,1.1
2018-12-11T00:04:19.228Z,0.9
2018-12-11T00:06:19.273Z,1.5
2018-12-11T00:08:19.022Z,0.9
2018-12-11T00:10:19.300Z,1.3
2018-12-11T00:12:19.401Z,2.3
2018-12-11T00:14:19.154Z,0.9
2018-12-11T00:16:18.672Z,0.9
2018-12-11T00:18:18.507Z,1
2018-12-11T00:20:19.279Z,1.5
2018-12-11T00:22:19.062Z,1.3
2018-12-11T00:24:18.842Z,1.5
2018-12-11T00:26:19.474Z,1.2
2018-12-11T00:28:19.242Z,1.1
2018-12-11T00:30:19.037Z,1.7
2018-12-11T00:32:18.643Z,1.3
2018-12-11T00:34:19.415Z,1.4
2018-12-11T00:36:19.019Z,0.9
2018-12-11T00:38:18.817Z,1.7
2018-12-11T00:40:19.113Z,1.3
2018-12-11T00:42:18.899Z,1.1
2018-12-11T00:44:18.670Z,2
2018-12-11T00:46:19.295Z,1.2
2018-12-11T00:48:19.032Z,1.3
2018-12-11T00:50:18.807Z,1
2018-12-11T00:52:18.574Z,1.3
2018-12-11T00:54:19.342Z,1.5
2018-12-11T00:56:18.748Z,1.5
2018-12-11T00:58:18.494Z,2.2
2018-12-11T01:00:19.285Z,0.9
2018-12-11T01:02:18.917Z,1.8
2018-12-11T01:04:18.682Z,0.9
2018-12-11T01:06:19.282Z,1.8
2018-12-11T01:08:19.048Z,2.4
2018-12-11T01:10:19.307Z,1.7
2018-12-11T01:12:19.074Z,1.7
2018-12-11T01:14:18.880Z,2.1
2018-12-11T01:16:18.956Z,1.7
2018-12-11T01:18:18.786Z,2.5
2018-12-11T01:20:18.561Z,2.4
2018-12-11T01:22:19.328Z,1.2
2018-12-11T01:24:19.089Z,1.8
2018-12-11T01:26:18.722Z,1.9
2018-12-11T01:28:19.481Z,1
2018-12-11T01:30:19.240Z,0.9
2018-12-11T01:32:19.005Z,1.7
2018-12-11T01:34:18.745Z,1.5
2018-12-11T01:36:19.377Z,1.9
2018-12-11T01:38:19.162Z,1.7
2018-12-11T01:40:19.409Z,2.2
2018-12-11T01:42:19.163Z,1.5
2018-12-11T01:44:18.934Z,1.9
2018-12-11T01:46:19.016Z,2.1
2018-12-11T01:48:18.796Z,2
2018-12-11T01:50:18.562Z,2.4
2018-12-11T01:52:19.295Z,3
2018-12-11T01:54:19.017Z,1.3
2018-12-11T01:56:18.999Z,1.7
2018-12-11T01:58:18.720Z,1.8
2018-12-11T02:00:19.449Z,1.6
2018-12-11T02:02:19.170Z,1
2018-12-11T02:04:18.898Z,2.6
2018-12-11T02:06:18.854Z,2.4
2018-12-11T02:08:18.576Z,1.7
2018-12-11T02:10:18.765Z,0.9
2018-12-11T02:12:18.484Z,1.7
2018-12-11T02:14:19.220Z,1.4
2018-12-11T02:16:18.962Z,1.1
2018-12-11T02:18:18.781Z,1.8
2018-12-11T02:20:18.523Z,1.9
2018-12-11T02:22:19.220Z,1.8
2018-12-11T02:24:18.935Z,2.1
2018-12-11T02:26:19.252Z,2.2
2018-12-11T02:28:18.965Z,3
2018-12-11T02:30:18.717Z,2.7
2018-12-11T02:32:19.445Z,1.9
2018-12-11T02:34:19.172Z,2.1
2018-12-11T02:36:18.643Z,1.8
2018-12-11T02:38:19.365Z,1.2
2018-12-11T02:40:18.580Z,1.3
2018-12-11T02:42:19.330Z,2.2
2018-12-11T02:44:19.057Z,1.9
2018-12-11T02:46:19.412Z,2.4
2018-12-11T02:48:19.125Z,1.5
2018-12-11T02:50:18.867Z,1.6
2018-12-11T02:52:19.343Z,2.1
2018-12-11T02:54:19.082Z,2.4
2018-12-11T02:56:18.705Z,1.9
2018-12-11T02:58:19.428Z,2.9
2018-12-11T03:00:19.161Z,1.7
2018-12-11T03:02:18.878Z,1.8
2018-12-11T03:04:18.583Z,3.2
2018-12-11T03:06:18.558Z,0.8
2018-12-11T03:08:19.275Z,1.4
2018-12-11T03:10:19.455Z,2.1
2018-12-11T03:12:19.160Z,1.8
2018-12-11T03:14:18.937Z,1
2018-12-11T03:16:18.883Z,1.5
2018-12-11T03:18:18.686Z,1.4
2018-12-11T03:20:19.418Z,2.6
2018-12-11T03:22:19.125Z,0.9
2018-12-11T03:24:18.856Z,1.6
2018-12-11T03:26:19.119Z,1
2018-12-11T03:28:18.819Z,1.2
2018-12-11T03:30:18.572Z,2.1
2018-12-11T03:32:19.310Z,1.1
2018-12-11T03:34:19.041Z,1.2
2018-12-11T03:36:19.197Z,0.8
2018-12-11T03:38:18.921Z,1.8
2018-12-11T03:40:19.118Z,1.3
2018-12-11T03:42:18.822Z,1.8
2018-12-11T03:44:18.541Z,1.7
2018-12-11T03:46:18.991Z,0.7
2018-12-11T03:48:18.690Z,2.5
2018-12-11T03:50:19.431Z,1.5
2018-12-11T03:52:21.477Z,1.8
2018-12-11T03:54:18.561Z,2.5
2018-12-11T03:56:19.268Z,0.9
2018-12-11T03:58:18.975Z,1.5
2018-12-11T04:00:18.707Z,1.3
2018-12-11T04:02:19.268Z,1.2
2018-12-11T04:04:18.993Z,2
2018-12-11T04:06:19.099Z,1
2018-12-11T04:08:18.812Z,1.5
2018-12-11T04:10:18.990Z,1.3
2018-12-11T04:12:18.740Z,2.3
2018-12-11T04:14:19.458Z,0.6
2018-12-11T04:16:18.900Z,0.9
2018-12-11T04:18:18.681Z,1.2
2018-12-11T04:20:19.385Z,2.5
2018-12-11T04:22:19.018Z,1.8
2018-12-11T04:24:18.735Z,1.1
2018-12-11T04:26:19.166Z,2
2018-12-11T04:28:18.915Z,0.6
2018-12-11T04:30:18.682Z,1.5
2018-12-11T04:32:19.413Z,1.9
2018-12-11T04:34:19.128Z,1.6
2018-12-11T04:36:19.091Z,0.9
2018-12-11T04:38:18.797Z,2.1
2018-12-11T04:40:18.969Z,0.9
2018-12-11T04:42:18.695Z,2.8
2018-12-11T04:44:19.434Z,1.2
2018-12-11T04:46:18.921Z,1.7
2018-12-11T04:48:18.644Z,1
2018-12-11T04:50:19.364Z,1.9
2018-12-11T04:52:19.070Z,1.6
2018-12-11T04:54:18.779Z,1.1
2018-12-11T04:56:18.737Z,1.4
2018-12-11T04:58:19.444Z,1.9
2018-12-11T05:00:19.199Z,1.8
2018-12-11T05:02:18.929Z,2.4
2018-12-11T05:04:18.637Z,0.8
2018-12-11T05:06:19.076Z,1.1
2018-12-11T05:08:18.797Z,1
2018-12-11T05:10:18.979Z,1.2
2018-12-11T05:12:18.693Z,1.6
2018-12-11T05:14:19.398Z,0.7
2018-12-11T05:16:18.865Z,1.6
2018-12-11T05:18:21.166Z,1.9
2018-12-11T05:20:19.031Z,1.2
2018-12-11T05:22:18.753Z,1.3
2018-12-11T05:24:19.455Z,1.6
2018-12-11T05:26:18.949Z,1.3
2018-12-11T05:28:18.660Z,2.5
2018-12-11T05:30:19.398Z,1.3
2018-12-11T05:32:19.109Z,2
2018-12-11T05:34:18.811Z,1.8
2018-12-11T05:36:18.831Z,0.6
2018-12-11T05:38:18.532Z,0.7
2018-12-11T05:40:18.739Z,0.9
2018-12-11T05:42:19.461Z,1
2018-12-11T05:44:19.178Z,1.7
2018-12-11T05:46:18.621Z,0.4
2018-12-11T05:48:19.361Z,0.3
2018-12-11T05:50:19.103Z,1.4
2018-12-11T05:52:18.814Z,2.5
2018-12-11T05:54:18.546Z,0.8
2018-12-11T05:56:19.039Z,0.8
2018-12-11T05:58:18.746Z,0.9
2018-12-11T06:00:19.480Z,1.1
2018-12-11T06:02:19.185Z,0.9
2018-12-11T06:04:18.921Z,1.8
2018-12-11T06:06:18.881Z,1.2
2018-12-11T06:08:18.587Z,0.6
2018-12-11T06:10:18.801Z,0.5
2018-12-11T06:12:18.500Z,0.7
2018-12-11T06:14:19.205Z,1.5
2018-12-11T06:16:19.137Z,0.9
2018-12-11T06:18:18.913Z,1.3
2018-12-11T06:20:18.626Z,0.9
2018-12-11T06:22:19.359Z,0.6
2018-12-11T06:24:19.081Z,1.4
2018-12-11T06:26:18.585Z,1.3
2018-12-11T06:28:19.302Z,1.6
2018-12-11T06:30:19.014Z,1.3
2018-12-11T06:32:18.704Z,0.9
2018-12-11T06:34:19.382Z,1.7
2018-12-11T06:36:18.799Z,1.1
2018-12-11T06:38:18.487Z,0.4
2018-12-11T06:40:18.617Z,0.6
2018-12-11T18:32:18.014Z,0.9
2018-12-11T18:34:18.726Z,0.6
2018-12-11T18:36:19.130Z,0.5
2018-12-11T18:38:18.875Z,0.3
2018-12-11T18:40:19.140Z,0.5
2018-12-11T18:42:18.815Z,0.5
2018-12-11T18:44:18.552Z,0.6
2018-12-11T18:46:19.395Z,1.2
2018-12-11T18:48:19.133Z,0.8
2018-12-11T18:50:21.430Z,0.7
2018-12-11T18:52:19.276Z,0.5
2018-12-11T18:54:18.977Z,0.5
2018-12-11T18:56:19.399Z,0.6
2018-12-11T18:58:19.108Z,0.7
2018-12-11T19:00:18.821Z,0.5
2018-12-11T19:02:18.544Z,0.7
2018-12-11T19:04:19.264Z,0.3
2018-12-11T19:06:18.673Z,0.6
2018-12-11T19:08:19.374Z,0.7
2018-12-11T19:10:18.560Z,1
2018-12-11T19:12:19.221Z,0.6
2018-12-11T19:14:18.932Z,0.7
2018-12-11T19:16:18.870Z,0.5
2018-12-11T19:18:18.703Z,0.8
2018-12-11T19:20:19.456Z,0.6
2018-12-11T19:22:19.221Z,0.5
2018-12-11T19:24:18.946Z,0.8
2018-12-11T19:26:19.270Z,0.5
2018-12-11T19:28:18.952Z,0.7
2018-12-11T19:30:18.761Z,1.1
2018-12-11T19:32:18.594Z,0.2
2018-12-11T19:34:19.309Z,0.9
2018-12-11T19:36:19.259Z,0.8
2018-12-11T19:38:18.961Z,1
2018-12-11T19:40:19.231Z,1
2018-12-11T19:42:19.024Z,0.8
2018-12-11T19:44:18.741Z,0.5
2018-12-11T19:46:19.328Z,0.6
2018-12-11T19:48:19.099Z,0.8
2018-12-11T19:50:18.919Z,0.8
2018-12-11T19:52:18.768Z,0.6
2018-12-11T19:54:18.645Z,0.5
2018-12-11T19:56:18.966Z,0.6
2018-12-11T19:58:18.642Z,0.7
2018-12-11T20:00:18.498Z,0.4
2018-12-11T20:02:19.207Z,0.8
2018-12-11T20:04:19.072Z,0.6
2018-12-11T20:06:18.889Z,0.5
2018-12-11T20:08:18.925Z,0.5
2018-12-11T20:10:19.520Z,0.5
2018-12-11T20:12:19.403Z,0.7
2018-12-11T20:14:19.518Z,0.4
2018-12-11T20:16:19.112Z,0.7
2018-12-11T20:18:18.877Z,0.6
2018-12-11T20:20:18.928Z,0.4
2018-12-11T20:22:18.708Z,0.9
2018-12-11T20:24:19.442Z,0.7
2018-12-11T20:26:18.955Z,0.7
2018-12-11T20:28:18.897Z,0.3
2018-12-11T20:30:18.657Z,0.6
2018-12-11T20:32:19.535Z,0.4
2018-12-11T20:34:19.251Z,0.3
2018-12-11T20:36:18.817Z,0.3
2018-12-11T20:38:18.544Z,0.2
2018-12-11T20:40:18.673Z,0.3
2018-12-11T20:42:19.423Z,0.7
2018-12-11T20:44:19.112Z,0.6
2018-12-11T20:46:19.470Z,0.4
2018-12-11T20:48:19.166Z,0.3
2018-12-11T20:50:18.839Z,0.9
2018-12-11T20:52:18.556Z,0.2
2018-12-11T20:54:19.243Z,0.2
2018-12-11T20:56:18.642Z,0.2
2018-12-11T20:58:19.318Z,0.5
2018-12-11T21:00:19.053Z,0.2
2018-12-11T21:02:18.734Z,0.4
2018-12-11T21:04:19.441Z,0.3
2018-12-11T21:06:18.825Z,0.4
2018-12-11T21:08:18.529Z,0.3
2018-12-11T21:10:18.786Z,0.6
2018-12-11T21:12:19.523Z,0.4
2018-12-11T21:14:19.231Z,0.6
2018-12-11T21:16:18.551Z,0.9
2018-12-11T21:18:19.299Z,0.4
2018-12-11T21:20:19.036Z,0.6
2018-12-11T21:22:18.611Z,0.4
2018-12-11T21:24:19.288Z,0.5
2018-12-11T21:26:18.636Z,0.7
2018-12-11T21:28:19.339Z,0.7
2018-12-11T21:30:19.068Z,0.8
2018-12-11T21:32:18.741Z,0.5
2018-12-11T21:34:19.388Z,0.4
2018-12-11T21:36:18.782Z,0.4
2018-12-11T21:38:19.458Z,0.5
2018-12-11T21:40:18.654Z,0.6
2018-12-11T21:42:19.296Z,0.8
2018-12-11T21:44:19.023Z,0.4
2018-12-11T21:46:19.377Z,1
2018-12-11T21:48:19.092Z,1
2018-12-11T21:50:18.785Z,1.1
2018-12-11T21:52:18.510Z,0.9
2018-12-11T21:54:19.190Z,0.6
2018-12-11T21:56:18.551Z,0.5
2018-12-11T21:58:19.266Z,0.5
2018-12-11T22:00:19.003Z,0.5
2018-12-11T22:02:18.682Z,0.2
2018-12-11T22:04:19.355Z,0.6
2018-12-11T22:06:18.715Z,0.4
2018-12-11T22:08:19.401Z,0.8
2018-12-11T22:10:18.599Z,0.4
2018-12-11T22:12:19.302Z,0.6
2018-12-11T22:14:19.002Z,0.5
2018-12-11T22:16:19.452Z,0.7
2018-12-11T22:18:19.196Z,0.6
2018-12-11T22:20:18.915Z,1
2018-12-11T22:22:18.591Z,0.5
2018-12-11T22:24:19.243Z,1.2
2018-12-11T22:26:18.594Z,0.6
2018-12-11T22:28:19.285Z,0.5
2018-12-11T22:30:19.006Z,0.5
2018-12-11T22:32:18.708Z,0.8
2018-12-11T22:34:19.363Z,0.5
2018-12-11T22:36:18.702Z,0.8
2018-12-11T22:38:19.416Z,0.7
2018-12-11T22:40:18.628Z,0.5
2018-12-11T22:42:19.262Z,0.5
2018-12-11T22:44:18.970Z,0.5
2018-12-11T22:46:19.317Z,0.7
2018-12-11T22:48:19.053Z,0.3
2018-12-11T22:50:18.750Z,0.6
2018-12-11T22:52:19.462Z,0.5
2018-12-11T22:54:19.173Z,0.3
2018-12-11T22:56:18.560Z,0.4
2018-12-11T22:58:19.252Z,0.3
2018-12-11T23:00:18.972Z,0.6
2018-12-11T23:02:18.661Z,0.6
2018-12-11T23:04:19.342Z,0.6
2018-12-11T23:06:18.723Z,0.7
2018-12-11T23:08:19.423Z,0.5
2018-12-11T23:10:18.644Z,0.4
2018-12-11T23:12:19.290Z,0.5
2018-12-11T23:14:18.985Z,0.5
2018-12-11T23:16:19.353Z,0.4
2018-12-11T23:18:19.144Z,0.5
2018-12-11T23:20:18.804Z,0.3
2018-12-11T23:22:18.498Z,0.5
2018-12-11T23:24:19.182Z,0.4
2018-12-11T23:26:18.545Z,0.3
2018-12-11T23:28:19.246Z,0.5
2018-12-11T23:30:18.982Z,0.4
2018-12-11T23:32:18.663Z,0.4
2018-12-11T23:34:19.323Z,0.3
2018-12-11T23:36:18.712Z,0.5
2018-12-11T23:38:19.398Z,0.8
2018-12-11T23:40:18.605Z,0.5
2018-12-11T23:42:19.308Z,0.5
2018-12-11T23:44:19.009Z,0.6
2018-12-11T23:46:19.357Z,0.4
2018-12-11T23:48:19.079Z,0.6
2018-12-11T23:50:18.788Z,0.4
2018-12-11T23:52:18.500Z,0.6
2018-12-11T23:54:19.172Z,0.6
2018-12-11T23:56:18.517Z,0.5
2018-12-11T23:58:19.227Z,0.5
